sensor_id;sensor_type;location;lat;lon;timestamp;P1;durP1;ratioP1;P2;durP2;ratioP2
5811;SDS011;2932;52.400;9.558;2023-10-31T00:00:54;3.00;;;1.80;;
5811;SDS011;2932;52.400;9.558;2023-10-31T00:03:19;2.07;;;1.50;;
5811;SDS011;2932;52.400;9.558;2023-10-31T00:05:44;4.07;;;1.60;;
5811;SDS011;2932;52.400;9.558;2023-10-31T00:08:10;3.27;;;1.83;;
5811;SDS011;2932;52.400;9.558;2023-10-31T00:10:35;1.80;;;1.60;;
5811;SDS011;2932;52.400;9.558;2023-10-31T00:13:00;3.60;;;1.67;;
5811;SDS011;2932;52.400;9.558;2023-10-31T00:15:26;1.60;;;1.50;;
5811;SDS011;2932;52.400;9.558;2023-10-31T00:17:52;3.23;;;1.70;;
5811;SDS011;2932;52.400;9.558;2023-10-31T00:20:17;1.80;;;1.40;;
5811;SDS011;2932;52.400;9.558;2023-10-31T00:22:42;2.33;;;1.67;;
5811;SDS011;2932;52.400;9.558;2023-10-31T00:25:08;2.43;;;1.77;;
5811;SDS011;2932;52.400;9.558;2023-10-31T00:27:36;1.97;;;1.57;;
5811;SDS011;2932;52.400;9.558;2023-10-31T00:30:01;4.23;;;1.70;;
5811;SDS011;2932;52.400;9.558;2023-10-31T00:32:26;2.47;;;1.40;;
5811;SDS011;2932;52.400;9.558;2023-10-31T00:34:52;3.80;;;1.80;;
5811;SDS011;2932;52.400;9.558;2023-10-31T00:37:17;3.20;;;1.63;;
5811;SDS011;2932;52.400;9.558;2023-10-31T00:39:42;3.27;;;1.70;;
5811;SDS011;2932;52.400;9.558;2023-10-31T00:42:08;2.47;;;1.87;;
5811;SDS011;2932;52.400;9.558;2023-10-31T00:44:33;2.43;;;2.00;;
5811;SDS011;2932;52.400;9.558;2023-10-31T00:46:58;3.00;;;1.67;;
5811;SDS011;2932;52.400;9.558;2023-10-31T00:49:24;2.97;;;1.80;;
5811;SDS011;2932;52.400;9.558;2023-10-31T00:51:49;3.30;;;1.80;;
5811;SDS011;2932;52.400;9.558;2023-10-31T00:54:14;1.80;;;1.70;;
5811;SDS011;2932;52.400;9.558;2023-10-31T00:56:40;2.10;;;1.87;;
5811;SDS011;2932;52.400;9.558;2023-10-31T00:59:05;2.23;;;1.73;;
5811;SDS011;2932;52.400;9.558;2023-10-31T01:01:30;1.70;;;1.60;;
5811;SDS011;2932;52.400;9.558;2023-10-31T01:03:55;2.93;;;1.97;;
5811;SDS011;2932;52.400;9.558;2023-10-31T01:06:21;2.93;;;1.80;;
5811;SDS011;2932;52.400;9.558;2023-10-31T01:08:46;2.30;;;1.70;;
5811;SDS011;2932;52.400;9.558;2023-10-31T01:11:12;2.57;;;1.60;;
5811;SDS011;2932;52.400;9.558;2023-10-31T01:13:38;3.30;;;1.90;;
5811;SDS011;2932;52.400;9.558;2023-10-31T01:16:03;3.40;;;2.00;;
5811;SDS011;2932;52.400;9.558;2023-10-31T01:18:28;6.00;;;1.83;;
5811;SDS011;2932;52.400;9.558;2023-10-31T01:20:54;2.60;;;1.63;;
5811;SDS011;2932;52.400;9.558;2023-10-31T01:23:19;2.30;;;2.00;;
5811;SDS011;2932;52.400;9.558;2023-10-31T01:25:44;2.80;;;1.60;;
5811;SDS011;2932;52.400;9.558;2023-10-31T01:28:09;2.70;;;1.70;;
5811;SDS011;2932;52.400;9.558;2023-10-31T01:30:35;2.77;;;1.70;;
5811;SDS011;2932;52.400;9.558;2023-10-31T01:33:00;2.13;;;1.80;;
5811;SDS011;2932;52.400;9.558;2023-10-31T01:35:26;2.63;;;1.73;;
5811;SDS011;2932;52.400;9.558;2023-10-31T01:37:51;3.33;;;1.77;;
5811;SDS011;2932;52.400;9.558;2023-10-31T01:40:16;3.10;;;2.20;;
5811;SDS011;2932;52.400;9.558;2023-10-31T01:42:42;2.80;;;1.83;;
5811;SDS011;2932;52.400;9.558;2023-10-31T01:45:07;2.17;;;1.63;;
5811;SDS011;2932;52.400;9.558;2023-10-31T01:47:33;2.57;;;1.80;;
5811;SDS011;2932;52.400;9.558;2023-10-31T01:49:58;4.07;;;2.00;;
5811;SDS011;2932;52.400;9.558;2023-10-31T01:52:24;3.07;;;1.97;;
5811;SDS011;2932;52.400;9.558;2023-10-31T01:54:50;3.87;;;1.80;;
5811;SDS011;2932;52.400;9.558;2023-10-31T01:57:16;2.47;;;2.00;;
5811;SDS011;2932;52.400;9.558;2023-10-31T01:59:44;2.93;;;1.70;;
5811;SDS011;2932;52.400;9.558;2023-10-31T02:02:09;3.30;;;2.03;;
5811;SDS011;2932;52.400;9.558;2023-10-31T02:04:35;2.53;;;1.70;;
5811;SDS011;2932;52.400;9.558;2023-10-31T02:07:00;2.50;;;1.30;;
5811;SDS011;2932;52.400;9.558;2023-10-31T02:09:25;3.00;;;1.73;;
5811;SDS011;2932;52.400;9.558;2023-10-31T02:11:54;2.53;;;1.47;;
5811;SDS011;2932;52.400;9.558;2023-10-31T02:14:21;2.73;;;1.70;;
5811;SDS011;2932;52.400;9.558;2023-10-31T02:16:47;3.30;;;1.83;;
5811;SDS011;2932;52.400;9.558;2023-10-31T02:19:12;1.93;;;1.60;;
5811;SDS011;2932;52.400;9.558;2023-10-31T02:21:43;4.43;;;1.40;;
5811;SDS011;2932;52.400;9.558;2023-10-31T02:24:08;3.57;;;2.00;;
5811;SDS011;2932;52.400;9.558;2023-10-31T02:26:34;2.53;;;1.83;;
5811;SDS011;2932;52.400;9.558;2023-10-31T02:29:00;3.67;;;1.83;;
5811;SDS011;2932;52.400;9.558;2023-10-31T02:31:26;1.60;;;1.50;;
5811;SDS011;2932;52.400;9.558;2023-10-31T02:33:51;1.73;;;1.60;;
5811;SDS011;2932;52.400;9.558;2023-10-31T02:36:17;2.40;;;1.30;;
5811;SDS011;2932;52.400;9.558;2023-10-31T02:38:42;1.60;;;1.10;;
5811;SDS011;2932;52.400;9.558;2023-10-31T02:41:08;3.40;;;1.30;;
5811;SDS011;2932;52.400;9.558;2023-10-31T02:43:33;1.20;;;1.10;;
5811;SDS011;2932;52.400;9.558;2023-10-31T02:45:58;2.17;;;1.20;;
5811;SDS011;2932;52.400;9.558;2023-10-31T02:48:24;1.77;;;1.43;;
5811;SDS011;2932;52.400;9.558;2023-10-31T02:50:50;1.43;;;1.20;;
5811;SDS011;2932;52.400;9.558;2023-10-31T02:53:17;2.50;;;1.50;;
5811;SDS011;2932;52.400;9.558;2023-10-31T02:55:43;3.50;;;1.60;;
5811;SDS011;2932;52.400;9.558;2023-10-31T02:58:09;1.40;;;1.20;;
5811;SDS011;2932;52.400;9.558;2023-10-31T03:00:34;2.37;;;1.40;;
5811;SDS011;2932;52.400;9.558;2023-10-31T03:02:59;3.10;;;1.70;;
5811;SDS011;2932;52.400;9.558;2023-10-31T03:05:25;4.63;;;1.53;;
5811;SDS011;2932;52.400;9.558;2023-10-31T03:07:50;5.07;;;1.60;;
5811;SDS011;2932;52.400;9.558;2023-10-31T03:10:15;1.93;;;1.50;;
5811;SDS011;2932;52.400;9.558;2023-10-31T03:12:41;1.70;;;1.60;;
5811;SDS011;2932;52.400;9.558;2023-10-31T03:15:07;1.20;;;1.10;;
5811;SDS011;2932;52.400;9.558;2023-10-31T03:17:32;2.43;;;1.20;;
5811;SDS011;2932;52.400;9.558;2023-10-31T03:19:58;2.20;;;1.47;;
5811;SDS011;2932;52.400;9.558;2023-10-31T03:22:23;2.17;;;1.20;;
5811;SDS011;2932;52.400;9.558;2023-10-31T03:24:49;1.63;;;1.17;;
5811;SDS011;2932;52.400;9.558;2023-10-31T03:27:14;1.20;;;1.20;;
5811;SDS011;2932;52.400;9.558;2023-10-31T03:29:39;1.00;;;1.00;;
5811;SDS011;2932;52.400;9.558;2023-10-31T03:32:04;2.20;;;1.50;;
5811;SDS011;2932;52.400;9.558;2023-10-31T03:34:30;2.03;;;1.30;;
5811;SDS011;2932;52.400;9.558;2023-10-31T03:36:55;2.23;;;2.07;;
5811;SDS011;2932;52.400;9.558;2023-10-31T03:39:21;3.53;;;2.10;;
5811;SDS011;2932;52.400;9.558;2023-10-31T03:41:46;3.00;;;2.70;;
5811;SDS011;2932;52.400;9.558;2023-10-31T03:44:11;3.03;;;2.83;;
5811;SDS011;2932;52.400;9.558;2023-10-31T03:46:37;3.40;;;3.20;;
5811;SDS011;2932;52.400;9.558;2023-10-31T03:49:02;4.00;;;2.97;;
5811;SDS011;2932;52.400;9.558;2023-10-31T03:51:28;2.90;;;2.70;;
5811;SDS011;2932;52.400;9.558;2023-10-31T03:53:53;3.20;;;2.73;;
5811;SDS011;2932;52.400;9.558;2023-10-31T03:56:18;2.90;;;2.60;;
5811;SDS011;2932;52.400;9.558;2023-10-31T03:58:43;2.47;;;2.27;;
5811;SDS011;2932;52.400;9.558;2023-10-31T04:01:09;2.70;;;2.37;;
5811;SDS011;2932;52.400;9.558;2023-10-31T04:03:34;2.00;;;1.90;;
5811;SDS011;2932;52.400;9.558;2023-10-31T04:05:59;2.90;;;1.80;;
5811;SDS011;2932;52.400;9.558;2023-10-31T04:08:25;1.53;;;1.30;;
5811;SDS011;2932;52.400;9.558;2023-10-31T04:10:50;1.03;;;1.03;;
5811;SDS011;2932;52.400;9.558;2023-10-31T04:13:16;1.90;;;1.50;;
5811;SDS011;2932;52.400;9.558;2023-10-31T04:15:41;1.40;;;1.30;;
5811;SDS011;2932;52.400;9.558;2023-10-31T04:18:06;1.60;;;1.10;;
5811;SDS011;2932;52.400;9.558;2023-10-31T04:20:32;0.90;;;0.90;;
5811;SDS011;2932;52.400;9.558;2023-10-31T04:22:57;1.20;;;0.93;;
5811;SDS011;2932;52.400;9.558;2023-10-31T04:25:22;1.00;;;0.83;;
5811;SDS011;2932;52.400;9.558;2023-10-31T04:27:48;0.70;;;0.70;;
5811;SDS011;2932;52.400;9.558;2023-10-31T04:30:14;1.50;;;0.83;;
5811;SDS011;2932;52.400;9.558;2023-10-31T04:32:40;0.60;;;0.60;;
5811;SDS011;2932;52.400;9.558;2023-10-31T04:35:05;0.70;;;0.50;;
5811;SDS011;2932;52.400;9.558;2023-10-31T04:37:31;0.50;;;0.50;;
5811;SDS011;2932;52.400;9.558;2023-10-31T04:39:56;2.60;;;0.33;;
5811;SDS011;2932;52.400;9.558;2023-10-31T04:42:21;0.43;;;0.33;;
5811;SDS011;2932;52.400;9.558;2023-10-31T04:44:47;0.77;;;0.40;;
5811;SDS011;2932;52.400;9.558;2023-10-31T04:47:13;0.50;;;0.20;;
5811;SDS011;2932;52.400;9.558;2023-10-31T04:49:38;0.37;;;0.23;;
5811;SDS011;2932;52.400;9.558;2023-10-31T04:52:03;0.20;;;0.20;;
5811;SDS011;2932;52.400;9.558;2023-10-31T04:54:29;0.87;;;0.50;;
5811;SDS011;2932;52.400;9.558;2023-10-31T04:56:54;0.40;;;0.30;;
5811;SDS011;2932;52.400;9.558;2023-10-31T04:59:20;0.20;;;0.20;;
5811;SDS011;2932;52.400;9.558;2023-10-31T05:01:49;0.60;;;0.20;;
5811;SDS011;2932;52.400;9.558;2023-10-31T05:04:15;0.23;;;0.13;;
5811;SDS011;2932;52.400;9.558;2023-10-31T05:06:41;1.50;;;0.70;;
5811;SDS011;2932;52.400;9.558;2023-10-31T05:09:07;0.10;;;0.10;;
5811;SDS011;2932;52.400;9.558;2023-10-31T05:11:32;0.30;;;0.20;;
5811;SDS011;2932;52.400;9.558;2023-10-31T05:13:57;0.10;;;0.10;;
5811;SDS011;2932;52.400;9.558;2023-10-31T05:16:23;0.20;;;0.20;;
5811;SDS011;2932;52.400;9.558;2023-10-31T05:18:48;0.60;;;0.10;;
5811;SDS011;2932;52.400;9.558;2023-10-31T05:21:18;0.40;;;0.10;;
5811;SDS011;2932;52.400;9.558;2023-10-31T05:23:45;0.67;;;0.27;;
5811;SDS011;2932;52.400;9.558;2023-10-31T05:26:11;0.10;;;0.10;;
5811;SDS011;2932;52.400;9.558;2023-10-31T05:28:36;0.17;;;0.17;;
5811;SDS011;2932;52.400;9.558;2023-10-31T05:31:01;0.20;;;0.20;;
5811;SDS011;2932;52.400;9.558;2023-10-31T05:33:27;0.20;;;0.20;;
5811;SDS011;2932;52.400;9.558;2023-10-31T05:35:52;0.50;;;0.27;;
5811;SDS011;2932;52.400;9.558;2023-10-31T05:38:17;0.30;;;0.30;;
5811;SDS011;2932;52.400;9.558;2023-10-31T05:40:43;0.20;;;0.20;;
5811;SDS011;2932;52.400;9.558;2023-10-31T05:43:08;0.40;;;0.20;;
5811;SDS011;2932;52.400;9.558;2023-10-31T05:45:33;0.73;;;0.30;;
5811;SDS011;2932;52.400;9.558;2023-10-31T05:47:59;1.37;;;0.40;;
5811;SDS011;2932;52.400;9.558;2023-10-31T05:50:24;0.97;;;0.30;;
5811;SDS011;2932;52.400;9.558;2023-10-31T05:52:49;0.63;;;0.37;;
5811;SDS011;2932;52.400;9.558;2023-10-31T05:55:15;0.60;;;0.30;;
5811;SDS011;2932;52.400;9.558;2023-10-31T05:57:40;1.70;;;0.60;;
5811;SDS011;2932;52.400;9.558;2023-10-31T06:00:06;0.73;;;0.40;;
5811;SDS011;2932;52.400;9.558;2023-10-31T06:02:32;1.20;;;0.47;;
5811;SDS011;2932;52.400;9.558;2023-10-31T06:04:58;2.23;;;0.70;;
5811;SDS011;2932;52.400;9.558;2023-10-31T06:07:23;0.50;;;0.50;;
5811;SDS011;2932;52.400;9.558;2023-10-31T06:09:49;2.20;;;0.60;;
5811;SDS011;2932;52.400;9.558;2023-10-31T06:12:14;0.90;;;0.80;;
5811;SDS011;2932;52.400;9.558;2023-10-31T06:14:39;1.30;;;0.90;;
5811;SDS011;2932;52.400;9.558;2023-10-31T06:17:05;2.30;;;0.83;;
5811;SDS011;2932;52.400;9.558;2023-10-31T06:19:33;2.97;;;1.30;;
5811;SDS011;2932;52.400;9.558;2023-10-31T06:22:00;2.20;;;1.50;;
5811;SDS011;2932;52.400;9.558;2023-10-31T06:24:25;1.17;;;1.00;;
5811;SDS011;2932;52.400;9.558;2023-10-31T06:26:51;1.63;;;1.50;;
5811;SDS011;2932;52.400;9.558;2023-10-31T06:29:17;4.43;;;1.50;;
5811;SDS011;2932;52.400;9.558;2023-10-31T06:31:43;2.33;;;1.67;;
5811;SDS011;2932;52.400;9.558;2023-10-31T06:34:08;4.03;;;1.70;;
5811;SDS011;2932;52.400;9.558;2023-10-31T06:36:33;1.60;;;1.40;;
5811;SDS011;2932;52.400;9.558;2023-10-31T06:38:59;3.50;;;1.50;;
5811;SDS011;2932;52.400;9.558;2023-10-31T06:41:24;3.20;;;1.83;;
5811;SDS011;2932;52.400;9.558;2023-10-31T06:43:49;5.80;;;2.13;;
5811;SDS011;2932;52.400;9.558;2023-10-31T06:46:15;3.20;;;1.83;;
5811;SDS011;2932;52.400;9.558;2023-10-31T06:48:41;2.40;;;1.90;;
5811;SDS011;2932;52.400;9.558;2023-10-31T06:51:06;2.10;;;1.87;;
5811;SDS011;2932;52.400;9.558;2023-10-31T06:53:32;2.80;;;1.70;;
5811;SDS011;2932;52.400;9.558;2023-10-31T06:55:57;4.30;;;2.33;;
5811;SDS011;2932;52.400;9.558;2023-10-31T06:58:22;3.30;;;1.97;;
5811;SDS011;2932;52.400;9.558;2023-10-31T07:00:48;2.73;;;2.27;;
5811;SDS011;2932;52.400;9.558;2023-10-31T07:03:13;6.17;;;2.27;;
5811;SDS011;2932;52.400;9.558;2023-10-31T07:05:40;3.80;;;2.20;;
5811;SDS011;2932;52.400;9.558;2023-10-31T07:08:06;4.70;;;2.20;;
5811;SDS011;2932;52.400;9.558;2023-10-31T07:10:31;1.67;;;1.57;;
5811;SDS011;2932;52.400;9.558;2023-10-31T07:12:58;2.67;;;2.17;;
5811;SDS011;2932;52.400;9.558;2023-10-31T07:15:24;2.97;;;1.87;;
5811;SDS011;2932;52.400;9.558;2023-10-31T07:17:49;3.53;;;2.13;;
5811;SDS011;2932;52.400;9.558;2023-10-31T07:20:15;2.70;;;2.00;;
5811;SDS011;2932;52.400;9.558;2023-10-31T07:22:40;2.33;;;1.83;;
5811;SDS011;2932;52.400;9.558;2023-10-31T07:25:06;3.87;;;1.80;;
5811;SDS011;2932;52.400;9.558;2023-10-31T07:27:32;3.10;;;1.73;;
5811;SDS011;2932;52.400;9.558;2023-10-31T07:29:57;2.87;;;1.90;;
5811;SDS011;2932;52.400;9.558;2023-10-31T07:32:23;2.50;;;2.17;;
5811;SDS011;2932;52.400;9.558;2023-10-31T07:34:49;2.67;;;1.87;;
5811;SDS011;2932;52.400;9.558;2023-10-31T07:37:14;2.60;;;2.10;;
5811;SDS011;2932;52.400;9.558;2023-10-31T07:39:39;3.73;;;2.20;;
5811;SDS011;2932;52.400;9.558;2023-10-31T07:42:05;4.10;;;1.93;;
5811;SDS011;2932;52.400;9.558;2023-10-31T07:44:30;2.50;;;2.00;;
5811;SDS011;2932;52.400;9.558;2023-10-31T07:46:56;4.57;;;2.03;;
5811;SDS011;2932;52.400;9.558;2023-10-31T07:49:21;2.53;;;1.87;;
5811;SDS011;2932;52.400;9.558;2023-10-31T07:51:48;2.30;;;1.60;;
5811;SDS011;2932;52.400;9.558;2023-10-31T07:54:14;1.80;;;1.63;;
5811;SDS011;2932;52.400;9.558;2023-10-31T07:56:40;2.27;;;1.60;;
5811;SDS011;2932;52.400;9.558;2023-10-31T07:59:05;2.70;;;1.90;;
5811;SDS011;2932;52.400;9.558;2023-10-31T08:01:32;2.67;;;1.60;;
5811;SDS011;2932;52.400;9.558;2023-10-31T08:03:58;4.17;;;2.23;;
5811;SDS011;2932;52.400;9.558;2023-10-31T08:06:24;1.60;;;1.50;;
5811;SDS011;2932;52.400;9.558;2023-10-31T08:08:49;3.23;;;1.70;;
5811;SDS011;2932;52.400;9.558;2023-10-31T08:11:14;2.43;;;1.73;;
5811;SDS011;2932;52.400;9.558;2023-10-31T08:13:40;2.37;;;1.60;;
5811;SDS011;2932;52.400;9.558;2023-10-31T08:16:05;2.47;;;1.70;;
5811;SDS011;2932;52.400;9.558;2023-10-31T08:18:32;1.73;;;1.33;;
5811;SDS011;2932;52.400;9.558;2023-10-31T08:20:57;1.77;;;1.50;;
5811;SDS011;2932;52.400;9.558;2023-10-31T08:23:22;1.20;;;1.00;;
5811;SDS011;2932;52.400;9.558;2023-10-31T08:25:48;2.07;;;1.30;;
5811;SDS011;2932;52.400;9.558;2023-10-31T08:28:13;1.77;;;1.30;;
5811;SDS011;2932;52.400;9.558;2023-10-31T08:30:39;1.97;;;1.50;;
5811;SDS011;2932;52.400;9.558;2023-10-31T08:33:04;1.87;;;1.30;;
5811;SDS011;2932;52.400;9.558;2023-10-31T08:35:31;1.90;;;1.27;;
5811;SDS011;2932;52.400;9.558;2023-10-31T08:37:56;1.37;;;1.27;;
5811;SDS011;2932;52.400;9.558;2023-10-31T08:40:22;1.10;;;1.10;;
5811;SDS011;2932;52.400;9.558;2023-10-31T08:42:47;0.87;;;0.87;;
5811;SDS011;2932;52.400;9.558;2023-10-31T08:45:13;2.03;;;0.77;;
5811;SDS011;2932;52.400;9.558;2023-10-31T08:47:38;1.03;;;0.83;;
5811;SDS011;2932;52.400;9.558;2023-10-31T08:50:04;0.70;;;0.70;;
5811;SDS011;2932;52.400;9.558;2023-10-31T08:52:29;1.07;;;0.87;;
5811;SDS011;2932;52.400;9.558;2023-10-31T08:54:55;0.90;;;0.90;;
5811;SDS011;2932;52.400;9.558;2023-10-31T08:57:20;1.07;;;0.80;;
5811;SDS011;2932;52.400;9.558;2023-10-31T08:59:45;0.70;;;0.70;;
5811;SDS011;2932;52.400;9.558;2023-10-31T09:02:11;4.00;;;1.10;;
5811;SDS011;2932;52.400;9.558;2023-10-31T09:04:36;1.20;;;0.70;;
5811;SDS011;2932;52.400;9.558;2023-10-31T09:07:01;0.70;;;0.70;;
5811;SDS011;2932;52.400;9.558;2023-10-31T09:09:27;0.70;;;0.70;;
5811;SDS011;2932;52.400;9.558;2023-10-31T09:11:52;1.10;;;0.80;;
5811;SDS011;2932;52.400;9.558;2023-10-31T09:14:17;1.13;;;0.90;;
5811;SDS011;2932;52.400;9.558;2023-10-31T09:16:43;1.03;;;0.90;;
5811;SDS011;2932;52.400;9.558;2023-10-31T09:19:08;0.90;;;0.77;;
5811;SDS011;2932;52.400;9.558;2023-10-31T09:21:34;1.70;;;0.80;;
5811;SDS011;2932;52.400;9.558;2023-10-31T09:23:59;0.77;;;0.77;;
5811;SDS011;2932;52.400;9.558;2023-10-31T09:26:24;1.17;;;0.80;;
5811;SDS011;2932;52.400;9.558;2023-10-31T09:28:49;1.40;;;0.67;;
5811;SDS011;2932;52.400;9.558;2023-10-31T09:31:18;1.37;;;0.60;;
5811;SDS011;2932;52.400;9.558;2023-10-31T09:33:44;1.00;;;0.40;;
5811;SDS011;2932;52.400;9.558;2023-10-31T09:36:10;0.47;;;0.40;;
5811;SDS011;2932;52.400;9.558;2023-10-31T09:38:36;0.50;;;0.50;;
5811;SDS011;2932;52.400;9.558;2023-10-31T09:41:01;0.40;;;0.40;;
5811;SDS011;2932;52.400;9.558;2023-10-31T09:43:27;1.00;;;0.47;;
5811;SDS011;2932;52.400;9.558;2023-10-31T09:45:53;1.27;;;0.43;;
5811;SDS011;2932;52.400;9.558;2023-10-31T09:48:19;0.93;;;0.60;;
5811;SDS011;2932;52.400;9.558;2023-10-31T09:50:45;0.47;;;0.40;;
5811;SDS011;2932;52.400;9.558;2023-10-31T09:53:11;0.40;;;0.40;;
5811;SDS011;2932;52.400;9.558;2023-10-31T09:55:39;0.50;;;0.50;;
5811;SDS011;2932;52.400;9.558;2023-10-31T09:58:06;0.30;;;0.30;;
5811;SDS011;2932;52.400;9.558;2023-10-31T10:00:31;0.83;;;0.30;;
5811;SDS011;2932;52.400;9.558;2023-10-31T10:02:56;1.27;;;0.40;;
5811;SDS011;2932;52.400;9.558;2023-10-31T10:05:23;0.47;;;0.40;;
5811;SDS011;2932;52.400;9.558;2023-10-31T10:07:48;3.50;;;0.50;;
5811;SDS011;2932;52.400;9.558;2023-10-31T10:10:15;0.40;;;0.40;;
5811;SDS011;2932;52.400;9.558;2023-10-31T10:12:41;0.30;;;0.30;;
5811;SDS011;2932;52.400;9.558;2023-10-31T10:15:08;1.13;;;0.50;;
5811;SDS011;2932;52.400;9.558;2023-10-31T10:17:35;1.00;;;0.50;;
5811;SDS011;2932;52.400;9.558;2023-10-31T10:22:40;0.70;;;0.27;;
5811;SDS011;2932;52.400;9.558;2023-10-31T10:25:07;0.30;;;0.30;;
5811;SDS011;2932;52.400;9.558;2023-10-31T10:27:33;1.43;;;0.60;;
5811;SDS011;2932;52.400;9.558;2023-10-31T10:29:58;0.40;;;0.30;;
5811;SDS011;2932;52.400;9.558;2023-10-31T10:32:23;0.60;;;0.50;;
5811;SDS011;2932;52.400;9.558;2023-10-31T10:34:49;0.60;;;0.40;;
5811;SDS011;2932;52.400;9.558;2023-10-31T10:37:14;2.20;;;0.53;;
5811;SDS011;2932;52.400;9.558;2023-10-31T10:39:43;1.47;;;0.43;;
5811;SDS011;2932;52.400;9.558;2023-10-31T10:42:12;0.77;;;0.40;;
5811;SDS011;2932;52.400;9.558;2023-10-31T10:44:43;1.80;;;0.57;;
5811;SDS011;2932;52.400;9.558;2023-10-31T10:47:10;0.40;;;0.40;;
5811;SDS011;2932;52.400;9.558;2023-10-31T10:49:37;2.17;;;0.53;;
5811;SDS011;2932;52.400;9.558;2023-10-31T10:52:16;0.37;;;0.37;;
5811;SDS011;2932;52.400;9.558;2023-10-31T10:57:36;0.90;;;0.47;;
5811;SDS011;2932;52.400;9.558;2023-10-31T11:00:03;0.50;;;0.50;;
5811;SDS011;2932;52.400;9.558;2023-10-31T11:02:30;0.77;;;0.50;;
5811;SDS011;2932;52.400;9.558;2023-10-31T11:04:57;1.17;;;0.60;;
5811;SDS011;2932;52.400;9.558;2023-10-31T11:07:24;0.50;;;0.40;;
5811;SDS011;2932;52.400;9.558;2023-10-31T11:09:53;1.23;;;0.60;;
5811;SDS011;2932;52.400;9.558;2023-10-31T11:12:21;2.73;;;0.70;;
5811;SDS011;2932;52.400;9.558;2023-10-31T11:14:48;0.90;;;0.60;;
5811;SDS011;2932;52.400;9.558;2023-10-31T11:17:33;1.57;;;0.70;;
5811;SDS011;2932;52.400;9.558;2023-10-31T11:20:00;2.50;;;0.70;;
5811;SDS011;2932;52.400;9.558;2023-10-31T11:22:37;2.83;;;0.77;;
5811;SDS011;2932;52.400;9.558;2023-10-31T11:25:05;1.00;;;0.83;;
5811;SDS011;2932;52.400;9.558;2023-10-31T11:27:33;1.40;;;0.83;;
5811;SDS011;2932;52.400;9.558;2023-10-31T11:30:00;0.83;;;0.80;;
5811;SDS011;2932;52.400;9.558;2023-10-31T11:32:26;0.60;;;0.60;;
5811;SDS011;2932;52.400;9.558;2023-10-31T11:34:51;2.90;;;0.50;;
5811;SDS011;2932;52.400;9.558;2023-10-31T11:37:27;0.90;;;0.70;;
5811;SDS011;2932;52.400;9.558;2023-10-31T11:42:43;1.33;;;0.70;;
5811;SDS011;2932;52.400;9.558;2023-10-31T11:45:12;0.60;;;0.60;;
5811;SDS011;2932;52.400;9.558;2023-10-31T11:47:47;1.87;;;0.80;;
5811;SDS011;2932;52.400;9.558;2023-10-31T11:50:13;0.97;;;0.80;;
5811;SDS011;2932;52.400;9.558;2023-10-31T11:52:38;1.80;;;0.60;;
5811;SDS011;2932;52.400;9.558;2023-10-31T11:55:05;0.93;;;0.80;;
5811;SDS011;2932;52.400;9.558;2023-10-31T11:57:35;1.80;;;0.83;;
5811;SDS011;2932;52.400;9.558;2023-10-31T12:00:00;1.27;;;0.80;;
5811;SDS011;2932;52.400;9.558;2023-10-31T12:02:25;1.80;;;0.93;;
5811;SDS011;2932;52.400;9.558;2023-10-31T12:04:51;1.30;;;0.97;;
5811;SDS011;2932;52.400;9.558;2023-10-31T12:07:18;1.53;;;0.90;;
5811;SDS011;2932;52.400;9.558;2023-10-31T12:09:47;1.10;;;0.80;;
5811;SDS011;2932;52.400;9.558;2023-10-31T12:12:13;2.63;;;0.80;;
5811;SDS011;2932;52.400;9.558;2023-10-31T12:14:39;2.20;;;0.80;;
5811;SDS011;2932;52.400;9.558;2023-10-31T12:17:04;2.13;;;1.00;;
5811;SDS011;2932;52.400;9.558;2023-10-31T12:19:31;2.37;;;0.83;;
5811;SDS011;2932;52.400;9.558;2023-10-31T12:21:57;2.30;;;0.90;;
5811;SDS011;2932;52.400;9.558;2023-10-31T12:24:23;1.00;;;0.80;;
5811;SDS011;2932;52.400;9.558;2023-10-31T12:26:48;0.87;;;0.70;;
5811;SDS011;2932;52.400;9.558;2023-10-31T12:31:43;1.47;;;1.00;;
5811;SDS011;2932;52.400;9.558;2023-10-31T12:34:19;2.80;;;1.13;;
5811;SDS011;2932;52.400;9.558;2023-10-31T12:36:47;2.40;;;0.90;;
5811;SDS011;2932;52.400;9.558;2023-10-31T12:39:14;1.03;;;0.90;;
5811;SDS011;2932;52.400;9.558;2023-10-31T12:41:41;3.17;;;1.40;;
5811;SDS011;2932;52.400;9.558;2023-10-31T12:44:07;3.13;;;1.83;;
5811;SDS011;2932;52.400;9.558;2023-10-31T12:46:35;3.00;;;1.43;;
5811;SDS011;2932;52.400;9.558;2023-10-31T12:49:03;2.90;;;1.40;;
5811;SDS011;2932;52.400;9.558;2023-10-31T12:51:28;1.10;;;1.10;;
5811;SDS011;2932;52.400;9.558;2023-10-31T12:53:54;3.50;;;1.53;;
5811;SDS011;2932;52.400;9.558;2023-10-31T12:56:38;4.27;;;1.83;;
5811;SDS011;2932;52.400;9.558;2023-10-31T12:59:05;1.80;;;1.47;;
5811;SDS011;2932;52.400;9.558;2023-10-31T13:01:32;2.00;;;1.40;;
5811;SDS011;2932;52.400;9.558;2023-10-31T13:04:04;5.70;;;1.70;;
5811;SDS011;2932;52.400;9.558;2023-10-31T13:06:29;3.70;;;1.73;;
5811;SDS011;2932;52.400;9.558;2023-10-31T13:08:55;2.10;;;1.43;;
5811;SDS011;2932;52.400;9.558;2023-10-31T13:11:22;3.03;;;1.90;;
5811;SDS011;2932;52.400;9.558;2023-10-31T13:13:50;3.20;;;1.63;;
5811;SDS011;2932;52.400;9.558;2023-10-31T13:16:19;5.47;;;2.63;;
5811;SDS011;2932;52.400;9.558;2023-10-31T13:18:44;4.40;;;1.53;;
5811;SDS011;2932;52.400;9.558;2023-10-31T13:21:10;2.73;;;1.80;;
5811;SDS011;2932;52.400;9.558;2023-10-31T13:23:37;2.40;;;1.50;;
5811;SDS011;2932;52.400;9.558;2023-10-31T13:26:03;2.23;;;1.60;;
5811;SDS011;2932;52.400;9.558;2023-10-31T13:28:29;1.80;;;1.60;;
5811;SDS011;2932;52.400;9.558;2023-10-31T13:30:56;2.43;;;1.30;;
5811;SDS011;2932;52.400;9.558;2023-10-31T13:33:21;3.60;;;1.13;;
5811;SDS011;2932;52.400;9.558;2023-10-31T13:35:47;1.10;;;1.00;;
5811;SDS011;2932;52.400;9.558;2023-10-31T13:38:12;0.73;;;0.73;;
5811;SDS011;2932;52.400;9.558;2023-10-31T13:40:37;3.13;;;1.00;;
5811;SDS011;2932;52.400;9.558;2023-10-31T13:43:03;1.23;;;1.13;;
5811;SDS011;2932;52.400;9.558;2023-10-31T13:45:30;1.47;;;1.00;;
5811;SDS011;2932;52.400;9.558;2023-10-31T13:47:55;2.97;;;0.90;;
5811;SDS011;2932;52.400;9.558;2023-10-31T13:50:21;1.87;;;1.00;;
5811;SDS011;2932;52.400;9.558;2023-10-31T13:52:46;1.07;;;0.90;;
5811;SDS011;2932;52.400;9.558;2023-10-31T13:55:11;1.00;;;0.90;;
5811;SDS011;2932;52.400;9.558;2023-10-31T13:57:36;1.20;;;1.10;;
5811;SDS011;2932;52.400;9.558;2023-10-31T14:00:02;2.17;;;1.13;;
5811;SDS011;2932;52.400;9.558;2023-10-31T14:02:28;1.80;;;1.07;;
5811;SDS011;2932;52.400;9.558;2023-10-31T14:04:53;1.40;;;1.30;;
5811;SDS011;2932;52.400;9.558;2023-10-31T14:07:20;2.90;;;1.27;;
5811;SDS011;2932;52.400;9.558;2023-10-31T14:09:48;2.17;;;1.50;;
5811;SDS011;2932;52.400;9.558;2023-10-31T14:12:13;1.97;;;1.30;;
5811;SDS011;2932;52.400;9.558;2023-10-31T14:14:38;3.90;;;1.40;;
5811;SDS011;2932;52.400;9.558;2023-10-31T14:17:04;2.27;;;1.60;;
5811;SDS011;2932;52.400;9.558;2023-10-31T14:19:30;2.20;;;1.60;;
5811;SDS011;2932;52.400;9.558;2023-10-31T14:21:55;2.93;;;2.00;;
5811;SDS011;2932;52.400;9.558;2023-10-31T14:24:20;3.87;;;2.10;;
5811;SDS011;2932;52.400;9.558;2023-10-31T14:26:47;3.30;;;1.70;;
5811;SDS011;2932;52.400;9.558;2023-10-31T14:29:12;2.07;;;1.77;;
5811;SDS011;2932;52.400;9.558;2023-10-31T14:31:41;2.63;;;1.90;;
5811;SDS011;2932;52.400;9.558;2023-10-31T14:34:07;2.60;;;1.70;;
5811;SDS011;2932;52.400;9.558;2023-10-31T14:36:32;3.43;;;1.70;;
5811;SDS011;2932;52.400;9.558;2023-10-31T14:38:57;2.97;;;1.70;;
5811;SDS011;2932;52.400;9.558;2023-10-31T14:41:23;2.07;;;1.53;;
5811;SDS011;2932;52.400;9.558;2023-10-31T14:43:49;2.93;;;1.73;;
5811;SDS011;2932;52.400;9.558;2023-10-31T14:46:15;1.90;;;1.50;;
5811;SDS011;2932;52.400;9.558;2023-10-31T14:48:40;1.80;;;1.30;;
5811;SDS011;2932;52.400;9.558;2023-10-31T14:51:05;1.03;;;0.93;;
5811;SDS011;2932;52.400;9.558;2023-10-31T14:53:31;0.70;;;0.70;;
5811;SDS011;2932;52.400;9.558;2023-10-31T14:55:57;0.50;;;0.50;;
5811;SDS011;2932;52.400;9.558;2023-10-31T14:58:22;0.70;;;0.70;;
5811;SDS011;2932;52.400;9.558;2023-10-31T15:00:47;0.70;;;0.50;;
5811;SDS011;2932;52.400;9.558;2023-10-31T15:03:14;0.63;;;0.53;;
5811;SDS011;2932;52.400;9.558;2023-10-31T15:05:40;2.73;;;0.60;;
5811;SDS011;2932;52.400;9.558;2023-10-31T15:08:05;1.70;;;0.50;;
5811;SDS011;2932;52.400;9.558;2023-10-31T15:10:31;4.27;;;0.60;;
5811;SDS011;2932;52.400;9.558;2023-10-31T15:12:57;1.17;;;0.70;;
5811;SDS011;2932;52.400;9.558;2023-10-31T15:15:22;0.40;;;0.40;;
5811;SDS011;2932;52.400;9.558;2023-10-31T15:17:48;2.87;;;1.70;;